Time;durP1;ratioP1;P1;durP2;ratioP2;P2;SDS_P1;SDS_P2;PMS_P1;PMS_P2;Temp;Humidity;BMP_temperature;BMP_pressure;BME280_temperature;BME280_humidity;BME280_pressure;Samples;Min_cycle;Max_cycle;Signal;HPM_P1;HPM_P2
2023/04/25 00:00:25;;;;;;;;;;;13.10;96.90;13.40;99196.00;;;;332353;29;91843;-93
2023/04/25 00:00:54;;;;;;;;;;;13.10;97.00;13.40;99188.00;;;;330863;29;82487;-94
2023/04/25 00:01:26;;;;;;;;;;;13.10;96.80;13.40;99186.00;;;;333831;29;94929;-94
2023/04/25 00:01:56;;;;;;;;;;;13.10;96.90;13.40;99192.00;;;;334991;29;82620;-95
2023/04/25 00:02:28;;;;;;;;;;;13.10;96.80;13.40;99177.00;;;;331815;29;92463;-95
2023/04/25 00:02:56;;;;;;;;;;;13.10;96.70;13.40;99186.00;;;;330877;29;82518;-94
2023/04/25 00:03:30;;;;;;;;;;;13.10;96.80;13.40;99190.00;;;;328983;29;93400;-95
2023/04/25 00:04:01;;;;;;;;;;;13.10;97.10;13.30;99192.00;;;;330860;29;82488;-93
2023/04/25 00:04:29;;;;;;;;;;;13.10;97.50;13.20;99190.00;;;;328283;29;92053;-94
2023/04/25 00:04:48;;;;;;;;;;;13.10;97.60;13.10;99190.00;;;;330830;29;82339;-94
2023/04/25 00:05:31;;;;;;;;;;;13.10;97.70;13.10;99194.00;;;;328845;29;91729;-93
2023/04/25 00:06:01;;;;;;;;;;;13.00;97.80;13.00;99193.00;;;;328393;29;82398;-94
2023/04/25 00:06:26;;;;;;;;;;;13.00;97.80;13.00;99194.00;;;;326570;29;92789;-93
2023/04/25 00:07:04;;;;;;;;;;;13.00;97.80;13.00;99190.00;;;;326830;29;82598;-93
2023/04/25 00:07:34;;;;;;;;;;;12.90;97.80;13.00;99188.00;;;;323917;29;92003;-93
2023/04/25 00:08:02;;;;;;;;;;;12.90;97.80;12.90;99188.00;;;;325929;30;82458;-94
2023/04/25 00:08:44;;;;;;;;;;;12.80;97.90;13.10;99195.00;;;;325626;29;92043;-93
2023/04/25 00:09:11;;;;;;;;;;;12.80;97.70;12.90;99183.00;;;;324290;30;82603;-95
2023/04/25 00:09:46;;;;;;;;;;;12.80;98.00;12.90;99190.00;;;;325042;30;91682;-94
2023/04/25 00:09:58;;;;;;;;;;;12.80;97.90;13.00;99188.00;;;;325129;29;82513;-94
2023/04/25 00:10:13;;;;;;;;;;;12.80;97.80;13.10;99180.00;;;;322035;30;94348;-94
2023/04/25 00:10:25;;;;;;;;;;;12.80;97.70;13.10;99186.00;;;;323950;30;83540;-95
2023/04/25 00:10:37;;;;;;;;;;;12.80;97.90;13.00;99177.00;;;;323186;30;95619;-95
2023/04/25 00:10:49;;;;;;;;;;;12.80;97.90;13.10;99174.00;;;;322894;30;82350;-94
2023/04/25 00:11:01;;;;;;;;;;;12.80;97.80;13.20;99172.00;;;;324524;29;92241;-94
2023/04/25 00:11:13;;;;;;;;;;;12.80;97.70;13.20;99174.00;;;;324068;29;82571;-95
2023/04/25 00:11:24;;;;;;;;;;;12.80;97.70;13.20;99161.00;;;;323447;30;94527;-94
2023/04/25 00:11:36;;;;;;;;;;;12.80;97.70;13.30;99173.00;;;;325284;29;82242;-94
2023/04/25 00:11:48;;;;;;;;;;;12.80;97.70;13.30;99169.00;;;;324566;29;94520;-95
2023/04/25 00:12:01;;;;;;;;;;;12.80;97.80;13.30;99167.00;;;;323804;30;83612;-95
2023/04/25 00:12:13;;;;;;;;;;;12.80;97.90;13.30;99167.00;;;;324389;29;93229;-94
2023/04/25 00:12:25;;;;;;;;;;;12.80;97.90;13.30;99173.00;;;;325289;29;82502;-94
2023/04/25 00:12:37;;;;;;;;;;;12.80;97.90;13.30;99161.00;;;;324576;29;94598;-95
2023/04/25 00:12:49;;;;;;;;;;;12.80;97.90;13.30;99167.00;;;;325332;29;83370;-95
2023/04/25 00:13:02;;;;;;;;;;;12.80;97.90;13.30;99163.00;;;;323197;30;94367;-94
2023/04/25 00:13:14;;;;;;;;;;;12.80;97.90;13.30;99159.00;;;;324081;30;82594;-95
2023/04/25 00:13:26;;;;;;;;;;;12.80;97.90;13.30;99159.00;;;;325674;29;94369;-95
2023/04/25 00:13:41;;;;;;;;;;;12.90;97.80;13.20;99164.00;;;;326383;29;83485;-94
2023/04/25 00:13:54;;;;;;;;;;;12.90;97.90;13.20;99160.00;;;;324622;29;93950;-95
2023/04/25 00:14:06;;;;;;;;;;;12.90;97.80;13.30;99167.00;;;;326329;29;83614;-94
2023/04/25 00:14:18;;;;;;;;;;;12.80;97.70;13.20;99160.00;;;;324623;30;93342;-95
2023/04/25 00:14:33;;;;;;;;;;;12.90;97.90;13.30;99161.00;;;;325278;29;82453;-95
2023/04/25 00:14:46;;;;;;;;;;;12.90;97.80;13.30;99162.00;;;;326841;29;95392;-95
2023/04/25 00:14:59;;;;;;;;;;;12.80;97.80;13.30;99169.00;;;;325310;29;82357;-95
2023/04/25 00:15:12;;;;;;;;;;;12.90;97.90;13.20;99163.00;;;;324398;29;94566;-94
2023/04/25 00:15:24;;;;;;;;;;;12.90;98.00;13.20;99165.00;;;;327748;29;83191;-94
2023/04/25 00:15:37;;;;;;;;;;;12.90;98.10;13.10;99161.00;;;;325738;29;94335;-95
2023/04/25 00:15:50;;;;;;;;;;;12.90;98.10;13.10;99170.00;;;;325110;29;83443;-95
2023/04/25 00:16:02;;;;;;;;;;;12.90;98.20;13.10;99167.00;;;;324465;29;95592;-94
2023/04/25 00:16:15;;;;;;;;;;;12.90;98.10;13.00;99157.00;;;;325265;29;83314;-94
2023/04/25 00:16:28;;;;;;;;;;;12.90;98.20;13.10;99164.00;;;;325739;29;97686;-95
2023/04/25 00:16:40;;;;;;;;;;;12.80;98.20;13.10;99160.00;;;;326423;29;83418;-94
2023/04/25 00:16:54;;;;;;;;;;;12.90;98.20;13.00;99169.00;;;;325705;29;96770;-95
2023/04/25 00:17:06;;;;;;;;;;;12.80;98.10;13.00;99162.00;;;;325149;30;83476;-95
2023/04/25 00:17:18;;;;;;;;;;;12.80;98.20;13.00;99158.00;;;;323456;30;96356;-94
2023/04/25 00:17:31;;;;;;;;;;;12.80;98.20;13.00;99162.00;;;;325343;29;83588;-94
2023/04/25 00:17:43;;;;;;;;;;;12.80;98.30;13.00;99170.00;;;;325689;29;96201;-94
2023/04/25 00:17:55;;;;;;;;;;;12.80;98.30;12.90;99157.00;;;;327794;29;83278;-95
2023/04/25 00:18:07;;;;;;;;;;;12.80;98.20;12.90;99164.00;;;;324576;29;97036;-95
2023/04/25 00:18:19;;;;;;;;;;;12.80;98.20;12.90;99171.00;;;;327636;29;83451;-94
2023/04/25 00:18:33;;;;;;;;;;;12.80;98.30;12.90;99167.00;;;;327011;29;96331;-94
2023/04/25 00:18:51;;;;;;;;;;;12.70;98.30;12.80;99167.00;;;;325283;29;83542;-94
2023/04/25 00:19:03;;;;;;;;;;;12.70;98.40;12.80;99167.00;;;;325527;29;97323;-94
2023/04/25 00:19:15;;;;;;;;;;;12.70;98.30;12.80;99168.00;;;;325275;29;82620;-94
2023/04/25 00:19:28;;;;;;;;;;;12.70;98.40;12.80;99173.00;;;;324524;30;97467;-94
2023/04/25 00:19:40;;;;;;;;;;;12.70;98.40;12.70;99176.00;;;;325309;29;83401;-94
2023/04/25 00:19:52;;;;;;;;;;;12.60;98.40;12.80;99165.00;;;;325712;29;96921;-95
2023/04/25 00:20:05;;;;;;;;;;;12.60;98.40;12.80;99180.00;;;;324161;30;83346;-94
2023/04/25 00:20:17;;;;;;;;;;;12.60;98.40;12.80;99166.00;;;;324493;30;96979;-94
2023/04/25 00:20:29;;;;;;;;;;;12.60;98.50;12.70;99175.00;;;;326486;29;83578;-94
2023/04/25 00:20:46;;;;;;;;;;;12.60;98.60;12.70;99165.00;;;;324536;29;96071;-95
2023/04/25 00:20:57;;;;;;;;;;;12.60;98.60;12.70;99171.00;;;;325217;29;83380;-94
2023/04/25 00:21:09;;;;;;;;;;;12.60;98.70;12.70;99178.00;;;;324557;29;97800;-94
2023/04/25 00:21:24;;;;;;;;;;;12.60;98.70;12.70;99168.00;;;;323980;30;83465;-94
2023/04/25 00:21:37;;;;;;;;;;;12.50;98.60;12.70;99171.00;;;;324551;30;96373;-95
2023/04/25 00:21:49;;;;;;;;;;;12.50;98.70;12.70;99170.00;;;;324072;30;82554;-94
2023/04/25 00:22:01;;;;;;;;;;;12.50;98.70;12.70;99168.00;;;;327005;29;96944;-93
2023/04/25 00:22:17;;;;;;;;;;;12.50;98.70;12.70;99173.00;;;;326466;29;82627;-94
2023/04/25 00:22:29;;;;;;;;;;;12.50;98.80;12.70;99175.00;;;;324530;30;97036;-94
2023/04/25 00:22:40;;;;;;;;;;;12.50;98.80;12.60;99178.00;;;;326506;29;83349;-94
2023/04/25 00:22:55;;;;;;;;;;;12.50;98.80;12.60;99179.00;;;;325802;29;95590;-94
2023/04/25 00:23:07;;;;;;;;;;;12.50;98.80;12.60;99170.00;;;;326451;29;82572;-94
2023/04/25 00:23:19;;;;;;;;;;;12.50;98.90;12.70;99174.00;;;;324517;29;96741;-94
2023/04/25 00:23:31;;;;;;;;;;;12.40;98.90;12.60;99176.00;;;;326559;29;82398;-94
2023/04/25 00:23:43;;;;;;;;;;;12.40;98.90;12.60;99170.00;;;;324458;29;95956;-94
2023/04/25 00:23:55;;;;;;;;;;;12.40;98.90;12.60;99161.00;;;;326631;29;83286;-94
2023/04/25 00:24:07;;;;;;;;;;;12.40;98.90;12.60;99171.00;;;;323453;30;95661;-94
2023/04/25 00:24:19;;;;;;;;;;;12.40;99.00;12.60;99172.00;;;;325208;30;83614;-94
2023/04/25 00:24:31;;;;;;;;;;;12.40;99.10;12.60;99165.00;;;;325625;29;97131;-94
2023/04/25 00:24:43;;;;;;;;;;;12.40;99.10;12.60;99171.00;;;;326286;29;83663;-95
2023/04/25 00:24:57;;;;;;;;;;;12.40;99.10;12.60;99170.00;;;;325769;29;95922;-95
2023/04/25 00:25:08;;;;;;;;;;;12.40;99.10;12.60;99166.00;;;;325308;29;82529;-95
2023/04/25 00:25:20;;;;;;;;;;;12.40;99.10;12.60;99173.00;;;;324410;30;97457;-94
2023/04/25 00:25:32;;;;;;;;;;;12.40;99.10;12.50;99168.00;;;;326405;29;82479;-94
2023/04/25 00:25:45;;;;;;;;;;;12.40;99.20;12.50;99176.00;;;;324416;29;96242;-93
2023/04/25 00:25:56;;;;;;;;;;;12.30;99.20;12.60;99173.00;;;;327829;29;82420;-94
2023/04/25 00:26:08;;;;;;;;;;;12.30;99.30;12.50;99170.00;;;;325811;29;95684;-94
2023/04/25 00:26:23;;;;;;;;;;;12.40;99.30;12.50;99171.00;;;;325159;30;83577;-94
2023/04/25 00:26:35;;;;;;;;;;;12.30;99.20;12.60;99165.00;;;;324645;29;95502;-94
2023/04/25 00:26:47;;;;;;;;;;;12.30;99.30;12.50;99170.00;;;;324044;30;82577;-94
2023/04/25 00:26:59;;;;;;;;;;;12.30;99.30;12.50;99170.00;;;;326964;29;94399;-94
2023/04/25 00:27:11;;;;;;;;;;;12.30;99.40;12.60;99164.00;;;;326666;29;83328;-94
2023/04/25 00:27:23;;;;;;;;;;;12.30;99.40;12.60;99164.00;;;;324504;29;97689;-93
2023/04/25 00:27:35;;;;;;;;;;;12.30;99.50;12.60;99170.00;;;;326553;29;83433;-94
2023/04/25 00:27:46;;;;;;;;;;;12.30;99.50;12.60;99168.00;;;;324503;29;96949;-94
2023/04/25 00:27:59;;;;;;;;;;;12.30;99.40;12.60;99166.00;;;;328944;29;83478;-94
2023/04/25 00:28:11;;;;;;;;;;;12.30;99.50;12.60;99165.00;;;;328254;29;95953;-95
2023/04/25 00:28:23;;;;;;;;;;;12.30;99.50;12.60;99164.00;;;;327620;29;83526;-95
2023/04/25 00:28:35;;;;;;;;;;;12.30;99.40;12.70;99163.00;;;;326950;29;95562;-94
2023/04/25 00:28:47;;;;;;;;;;;12.30;99.30;12.70;99158.00;;;;328920;29;83313;-95
2023/04/25 00:28:59;;;;;;;;;;;12.30;99.30;12.70;99163.00;;;;324391;29;94590;-95
2023/04/25 00:29:11;;;;;;;;;;;12.30;99.20;12.70;99160.00;;;;328996;29;83420;-95
2023/04/25 00:29:23;;;;;;;;;;;12.30;99.20;12.70;99159.00;;;;329481;29;96635;-93
2023/04/25 00:29:35;;;;;;;;;;;12.40;99.30;12.70;99159.00;;;;329019;29;83329;-95
2023/04/25 00:29:46;;;;;;;;;;;12.30;99.20;12.80;99152.00;;;;326921;29;96440;-95
2023/04/25 00:29:58;;;;;;;;;;;12.40;99.20;12.80;99155.00;;;;327743;29;82603;-95
2023/04/25 00:30:11;;;;;;;;;;;12.30;99.10;12.80;99161.00;;;;325632;29;95673;-95
2023/04/25 00:30:22;;;;;;;;;;;12.40;99.00;12.80;99161.00;;;;328874;29;82469;-94
2023/04/25 00:30:34;;;;;;;;;;;12.30;98.90;12.80;99154.00;;;;328289;29;95513;-95
2023/04/25 00:30:46;;;;;;;;;;;12.40;99.00;12.80;99156.00;;;;327686;29;83302;-94
2023/04/25 00:30:58;;;;;;;;;;;12.40;99.00;12.80;99151.00;;;;325829;29;95493;-94
2023/04/25 00:31:10;;;;;;;;;;;12.40;98.90;12.80;99163.00;;;;326558;29;83376;-94
2023/04/25 00:31:22;;;;;;;;;;;12.40;98.90;12.80;99160.00;;;;326934;29;96746;-94
2023/04/25 00:31:34;;;;;;;;;;;12.40;98.90;12.80;99165.00;;;;328957;29;82538;-95
2023/04/25 00:31:45;;;;;;;;;;;12.40;99.00;12.80;99156.00;;;;326901;29;97220;-94
2023/04/25 00:31:57;;;;;;;;;;;12.40;99.10;12.70;99157.00;;;;329025;29;82586;-95
2023/04/25 00:32:10;;;;;;;;;;;12.40;99.20;12.70;99159.00;;;;326890;29;95609;-95
2023/04/25 00:32:21;;;;;;;;;;;12.40;99.40;12.80;99167.00;;;;327723;29;83523;-94
2023/04/25 00:32:33;;;;;;;;;;;12.40;99.40;12.80;99158.00;;;;325762;29;96362;-95
2023/04/25 00:32:45;;;;;;;;;;;12.40;99.30;12.80;99157.00;;;;328975;29;82563;-95
2023/04/25 00:32:57;;;;;;;;;;;12.40;99.10;12.80;99165.00;;;;328031;29;95581;-95
2023/04/25 00:33:09;;;;;;;;;;;12.40;99.30;12.70;99162.00;;;;329046;29;82544;-94
2023/04/25 00:33:21;;;;;;;;;;;12.40;99.40;12.70;99160.00;;;;328176;29;96589;-95
2023/04/25 00:33:33;;;;;;;;;;;12.40;99.40;12.70;99164.00;;;;327767;29;83341;-95
2023/04/25 00:33:45;;;;;;;;;;;12.40;99.50;12.80;99160.00;;;;328140;29;96028;-95
2023/04/25 00:33:57;;;;;;;;;;;12.40;99.50;12.80;99159.00;;;;327723;29;83510;-95
2023/04/25 00:34:09;;;;;;;;;;;12.40;99.50;12.70;99158.00;;;;328300;29;95278;-94
2023/04/25 00:34:21;;;;;;;;;;;12.40;99.40;12.70;99161.00;;;;328865;29;83348;-95
2023/04/25 00:34:32;;;;;;;;;;;12.40;99.50;12.80;99154.00;;;;326992;29;94537;-94
2023/04/25 00:34:44;;;;;;;;;;;12.40;99.60;12.80;99157.00;;;;328983;29;82505;-95
2023/04/25 00:34:57;;;;;;;;;;;12.40;99.50;12.80;99158.00;;;;326933;29;95600;-95
2023/04/25 00:35:09;;;;;;;;;;;12.40;99.40;12.80;99154.00;;;;329050;29;82522;-95
2023/04/25 00:35:21;;;;;;;;;;;12.40;99.30;12.70;99163.00;;;;326891;29;97678;-94
2023/04/25 00:35:34;;;;;;;;;;;12.40;99.30;12.70;99162.00;;;;328918;29;83400;-94
2023/04/25 00:35:46;;;;;;;;;;;12.40;99.30;12.80;99160.00;;;;328090;29;96719;-95
2023/04/25 00:35:57;;;;;;;;;;;12.40;99.20;12.80;99158.00;;;;327704;29;83458;-95
2023/04/25 00:36:09;;;;;;;;;;;12.40;99.30;12.80;99160.00;;;;328176;29;95498;-95
2023/04/25 00:36:21;;;;;;;;;;;12.40;99.40;12.80;99154.00;;;;326374;29;82522;-95
2023/04/25 00:36:33;;;;;;;;;;;12.50;99.40;12.80;99168.00;;;;328781;29;96838;-95
2023/04/25 00:36:45;;;;;;;;;;;12.40;99.30;12.80;99162.00;;;;328962;29;83386;-95
2023/04/25 00:36:57;;;;;;;;;;;12.40;99.20;12.80;99166.00;;;;328223;29;96604;-94
2023/04/25 00:37:10;;;;;;;;;;;12.40;99.00;12.80;99165.00;;;;331493;29;82536;-95
2023/04/25 00:37:22;;;;;;;;;;;12.50;98.90;12.80;99161.00;;;;327017;29;96664;-95
2023/04/25 00:37:33;;;;;;;;;;;12.40;99.00;12.80;99165.00;;;;330256;29;83378;-94
2023/04/25 00:37:45;;;;;;;;;;;12.40;99.20;12.80;99158.00;;;;329469;29;95556;-94
2023/04/25 00:37:57;;;;;;;;;;;12.40;99.30;12.80;99162.00;;;;330288;29;83439;-95
2023/04/25 00:38:09;;;;;;;;;;;12.50;99.20;12.80;99157.00;;;;330687;29;96936;-94
2023/04/25 00:38:21;;;;;;;;;;;12.50;99.40;12.80;99155.00;;;;330220;29;82619;-95
2023/04/25 00:38:33;;;;;;;;;;;12.50;99.40;12.80;99159.00;;;;329379;29;96172;-94
2023/04/25 00:38:45;;;;;;;;;;;12.40;99.50;12.80;99155.00;;;;330320;29;82266;-95
2023/04/25 00:38:57;;;;;;;;;;;12.40;99.60;12.70;99157.00;;;;329440;29;97605;-94
2023/04/25 00:39:08;;;;;;;;;;;12.40;99.50;12.70;99162.00;;;;329018;29;82526;-95
2023/04/25 00:39:20;;;;;;;;;;;12.40;99.50;12.70;99156.00;;;;329432;29;96816;-95
2023/04/25 00:39:32;;;;;;;;;;;12.40;99.50;12.70;99165.00;;;;330224;29;83466;-95
2023/04/25 00:39:44;;;;;;;;;;;12.40;99.50;12.70;99160.00;;;;328179;29;95801;-95
2023/04/25 00:40:00;;;;;;;;;;;12.40;99.50;12.60;99164.00;;;;328941;29;82466;-95
2023/04/25 00:40:12;;;;;;;;;;;12.40;99.70;12.70;99167.00;;;;329560;29;95695;-94
2023/04/25 00:40:24;;;;;;;;;;;12.40;99.80;12.60;99159.00;;;;329087;29;82308;-94
2023/04/25 00:40:35;;;;;;;;;;;12.40;99.70;12.60;99159.00;;;;328433;29;96488;-94
2023/04/25 00:40:47;;;;;;;;;;;12.40;99.50;12.60;99162.00;;;;331670;29;82517;-95
2023/04/25 00:40:59;;;;;;;;;;;12.40;99.50;12.60;99154.00;;;;332233;29;95605;-94
2023/04/25 00:41:11;;;;;;;;;;;12.40;99.40;12.60;99163.00;;;;330456;29;82510;-94
2023/04/25 00:41:25;;;;;;;;;;;12.40;99.50;12.60;99160.00;;;;329533;29;97442;-94
2023/04/25 00:41:36;;;;;;;;;;;12.40;99.50;12.60;99163.00;;;;330377;29;83427;-94
2023/04/25 00:41:48;;;;;;;;;;;12.40;99.50;12.60;99163.00;;;;330962;29;94436;-94
2023/04/25 00:42:01;;;;;;;;;;;12.40;99.40;12.70;99157.00;;;;330381;29;83647;-94
2023/04/25 00:42:13;;;;;;;;;;;12.40;99.30;12.80;99162.00;;;;328123;29;95312;-95
2023/04/25 00:42:25;;;;;;;;;;;12.40;99.30;12.70;99165.00;;;;329097;29;83482;-94
2023/04/25 00:42:37;;;;;;;;;;;12.40;99.50;12.70;99167.00;;;;329768;29;95873;-94
2023/04/25 00:42:49;;;;;;;;;;;12.40;99.60;12.70;99164.00;;;;330456;29;82690;-95
2023/04/25 00:43:01;;;;;;;;;;;12.40;99.60;12.70;99167.00;;;;329614;29;97216;-94
2023/04/25 00:43:13;;;;;;;;;;;12.40;99.60;12.60;99166.00;;;;331708;29;83399;-94
2023/04/25 00:43:26;;;;;;;;;;;12.40;99.50;12.70;99160.00;;;;328375;29;95119;-94
2023/04/25 00:43:37;;;;;;;;;;;12.40;99.50;12.70;99160.00;;;;331678;29;82547;-95
2023/04/25 00:43:49;;;;;;;;;;;12.40;99.60;12.70;99154.00;;;;328492;29;95268;-95
2023/04/25 00:44:02;;;;;;;;;;;12.40;99.50;12.70;99161.00;;;;329231;29;82533;-94
2023/04/25 00:44:16;;;;;;;;;;;12.40;99.40;12.80;99156.00;;;;328491;29;97137;-95
2023/04/25 00:44:29;;;;;;;;;;;12.40;99.30;12.80;99157.00;;;;330395;29;82565;-94
2023/04/25 00:44:41;;;;;;;;;;;12.40;99.30;12.80;99151.00;;;;329567;29;96976;-95
2023/04/25 00:44:53;;;;;;;;;;;12.40;99.30;12.80;99151.00;;;;329101;29;82428;-94
2023/04/25 00:45:06;;;;;;;;;;;12.40;99.40;12.80;99149.00;;;;329660;29;93107;-94
2023/04/25 00:45:18;;;;;;;;;;;12.40;99.30;12.80;99155.00;;;;329064;29;83406;-95
2023/04/25 00:45:30;;;;;;;;;;;12.40;99.30;12.80;99153.00;;;;330741;29;97988;-95
2023/04/25 00:45:42;;;;;;;;;;;12.40;99.40;12.80;99148.00;;;;331700;29;82484;-94
2023/04/25 00:45:54;;;;;;;;;;;12.40;99.30;12.80;99155.00;;;;330949;29;95220;-95
2023/04/25 00:46:06;;;;;;;;;;;12.40;99.20;12.80;99154.00;;;;332857;29;82608;-95
2023/04/25 00:46:17;;;;;;;;;;;12.40;99.30;12.80;99147.00;;;;333547;29;95607;-95
2023/04/25 00:46:30;;;;;;;;;;;12.40;99.40;12.70;99157.00;;;;334226;29;82359;-94
2023/04/25 00:46:42;;;;;;;;;;;12.40;99.40;12.70;99153.00;;;;332259;29;95503;-94
2023/04/25 00:46:54;;;;;;;;;;;12.40;99.50;12.70;99155.00;;;;331813;29;82450;-94
2023/04/25 00:47:06;;;;;;;;;;;12.40;99.60;12.70;99157.00;;;;333540;29;96927;-94
2023/04/25 00:47:18;;;;;;;;;;;12.40;99.70;12.70;99151.00;;;;333017;29;82555;-94
2023/04/25 00:47:30;;;;;;;;;;;12.40;99.70;12.70;99157.00;;;;332133;29;97907;-94
2023/04/25 00:47:42;;;;;;;;;;;12.40;99.50;12.70;99155.00;;;;332919;29;83434;-95
2023/04/25 00:47:54;;;;;;;;;;;12.40;99.50;12.60;99158.00;;;;332233;29;95934;-95
2023/04/25 00:48:06;;;;;;;;;;;12.40;99.50;12.60;99158.00;;;;335547;29;83446;-94
2023/04/25 00:48:21;;;;;;;;;;;12.40;99.40;12.60;99161.00;;;;331898;29;95976;-95
2023/04/25 00:48:33;;;;;;;;;;;12.40;99.30;12.60;99167.00;;;;334059;29;82425;-95
2023/04/25 00:48:45;;;;;;;;;;;12.40;99.30;12.60;99154.00;;;;332004;29;96500;-94
2023/04/25 00:48:57;;;;;;;;;;;12.40;99.20;12.60;99150.00;;;;332803;29;82553;-94
2023/04/25 00:49:13;;;;;;;;;;;12.40;99.20;12.60;99158.00;;;;332050;29;95351;-94
2023/04/25 00:49:25;;;;;;;;;;;12.40;99.20;12.60;99159.00;;;;331588;29;83361;-95
2023/04/25 00:49:37;;;;;;;;;;;12.30;99.20;12.60;99153.00;;;;331903;29;97731;-95
2023/04/25 00:49:49;;;;;;;;;;;12.30;99.30;12.60;99154.00;;;;332817;29;82432;-94
2023/04/25 00:50:01;;;;;;;;;;;12.30;99.40;12.60;99148.00;;;;330839;29;95620;-94
2023/04/25 00:50:13;;;;;;;;;;;12.40;99.30;12.70;99159.00;;;;334017;29;83413;-95
2023/04/25 00:50:25;;;;;;;;;;;12.40;99.30;12.60;99158.00;;;;330586;29;97094;-94
2023/04/25 00:50:36;;;;;;;;;;;12.30;99.20;12.70;99165.00;;;;331497;29;83487;-94
2023/04/25 00:50:52;;;;;;;;;;;12.40;99.20;12.60;99148.00;;;;333428;29;95396;-95
2023/04/25 00:51:04;;;;;;;;;;;12.40;99.20;12.60;99154.00;;;;332755;29;82602;-93
2023/04/25 00:51:19;;;;;;;;;;;12.40;99.20;12.60;99151.00;;;;330819;29;96407;-95
2023/04/25 00:51:31;;;;;;;;;;;12.30;99.20;12.60;99160.00;;;;333994;29;83478;-94
2023/04/25 00:51:46;;;;;;;;;;;12.30;99.20;12.60;99162.00;;;;333256;29;96472;-94
2023/04/25 00:51:58;;;;;;;;;;;12.30;99.40;12.60;99154.00;;;;334107;29;82503;-94
2023/04/25 00:52:10;;;;;;;;;;;12.30;99.30;12.60;99153.00;;;;331907;29;97250;-94
2023/04/25 00:52:22;;;;;;;;;;;12.30;99.40;12.60;99156.00;;;;335288;29;83616;-94
2023/04/25 00:52:34;;;;;;;;;;;12.30;99.40;12.60;99151.00;;;;333224;29;96631;-94
2023/04/25 00:52:46;;;;;;;;;;;12.30;99.40;12.60;99152.00;;;;335354;29;82424;-94
2023/04/25 00:52:58;;;;;;;;;;;12.30;99.30;12.60;99150.00;;;;333112;29;94255;-95
2023/04/25 00:53:09;;;;;;;;;;;12.30;99.30;12.60;99149.00;;;;334228;29;82558;-94
2023/04/25 00:53:22;;;;;;;;;;;12.30;99.40;12.60;99155.00;;;;332095;29;95929;-95
2023/04/25 00:53:34;;;;;;;;;;;12.30;99.40;12.60;99153.00;;;;334223;29;82401;-94
2023/04/25 00:53:46;;;;;;;;;;;12.30;99.50;12.50;99147.00;;;;333244;29;96151;-94
2023/04/25 00:53:57;;;;;;;;;;;12.30;99.50;12.60;99152.00;;;;332777;29;82516;-94
2023/04/25 00:54:10;;;;;;;;;;;12.30;99.50;12.60;99154.00;;;;332077;29;96746;-94
2023/04/25 00:54:22;;;;;;;;;;;12.30;99.40;12.50;99146.00;;;;335319;29;82314;-93
2023/04/25 00:54:34;;;;;;;;;;;12.30;99.40;12.50;99156.00;;;;334580;29;96682;-94
2023/04/25 00:54:46;;;;;;;;;;;12.30;99.40;12.50;99160.00;;;;336662;28;83520;-94
2023/04/25 00:54:59;;;;;;;;;;;12.30;99.40;12.50;99151.00;;;;334638;29;95478;-94
2023/04/25 00:55:11;;;;;;;;;;;12.30;99.30;12.50;99148.00;;;;335322;29;82530;-94
2023/04/25 00:55:23;;;;;;;;;;;12.30;99.40;12.50;99153.00;;;;334600;29;96648;-94
2023/04/25 00:55:35;;;;;;;;;;;12.30;99.40;12.50;99159.00;;;;334066;29;83297;-93
2023/04/25 00:55:48;;;;;;;;;;;12.30;99.30;12.50;99165.00;;;;333375;29;96404;-95
2023/04/25 00:55:59;;;;;;;;;;;12.30;99.30;12.50;99160.00;;;;332908;29;83384;-94
2023/04/25 00:56:11;;;;;;;;;;;12.30;99.50;12.50;99165.00;;;;330794;29;96641;-93
2023/04/25 00:56:23;;;;;;;;;;;12.30;99.50;12.50;99168.00;;;;334129;29;82433;-94
2023/04/25 00:56:35;;;;;;;;;;;12.30;99.50;12.50;99161.00;;;;334638;29;95765;-93
2023/04/25 00:56:47;;;;;;;;;;;12.20;99.40;12.40;99167.00;;;;334116;29;83515;-93
2023/04/25 00:57:00;;;;;;;;;;;12.20;99.40;12.50;99164.00;;;;333364;29;96807;-94
2023/04/25 00:57:12;;;;;;;;;;;12.20;99.40;12.60;99170.00;;;;334061;29;83399;-94
2023/04/25 00:57:24;;;;;;;;;;;12.20;99.40;12.60;99171.00;;;;333226;29;95801;-94
2023/04/25 00:57:36;;;;;;;;;;;12.20;99.50;12.50;99169.00;;;;335341;29;83617;-95
2023/04/25 00:57:48;;;;;;;;;;;12.20;99.50;12.60;99176.00;;;;334653;29;96707;-94
2023/04/25 00:58:00;;;;;;;;;;;12.20;99.50;12.70;99173.00;;;;332898;29;83384;-94
2023/04/25 00:58:12;;;;;;;;;;;12.20;99.50;12.60;99166.00;;;;333321;29;96629;-94
2023/04/25 00:58:24;;;;;;;;;;;12.20;99.40;12.60;99174.00;;;;334141;29;82594;-94
2023/04/25 00:58:36;;;;;;;;;;;12.30;99.50;12.60;99173.00;;;;334655;29;95659;-95
2023/04/25 00:58:48;;;;;;;;;;;12.30;99.50;12.60;99167.00;;;;334050;29;83409;-94
2023/04/25 00:58:59;;;;;;;;;;;12.20;99.40;12.60;99172.00;;;;334520;29;96961;-94
2023/04/25 00:59:12;;;;;;;;;;;12.30;99.50;12.70;99182.00;;;;334086;29;82537;-94
2023/04/25 00:59:24;;;;;;;;;;;12.20;99.40;12.70;99173.00;;;;330887;29;94617;-94
2023/04/25 00:59:36;;;;;;;;;;;12.30;99.40;12.70;99171.00;;;;332769;29;83401;-94
2023/04/25 00:59:48;;;;;;;;;;;12.30;99.40;12.70;99171.00;;;;332991;29;96410;-94
2023/04/25 01:00:00;;;;;;;;;;;12.30;99.40;12.80;99168.00;;;;334036;29;82362;-94
2023/04/25 01:00:13;;;;;;;;;;;12.30;99.40;12.70;99168.00;;;;333202;29;96927;-94
2023/04/25 01:00:25;;;;;;;;;;;12.30;99.50;12.70;99167.00;;;;336592;28;83440;-94
2023/04/25 01:00:37;;;;;;;;;;;12.30;99.40;12.80;99176.00;;;;333337;29;95813;-94
2023/04/25 01:00:51;;;;;;;;;;;12.30;99.30;12.80;99173.00;;;;336733;28;83459;-94
2023/04/25 01:01:04;;;;;;;;;;;12.30;99.40;12.80;99174.00;;;;334529;29;96716;-94
2023/04/25 01:01:16;;;;;;;;;;;12.30;99.50;12.70;99177.00;;;;332795;29;82568;-94
2023/04/25 01:01:28;;;;;;;;;;;12.30;99.50;12.70;99184.00;;;;334614;29;96227;-93
2023/04/25 01:01:40;;;;;;;;;;;12.30;99.50;12.70;99168.00;;;;335274;29;83377;-94
2023/04/25 01:01:52;;;;;;;;;;;12.30;99.50;12.70;99173.00;;;;336218;28;97583;-95
2023/04/25 01:02:04;;;;;;;;;;;12.30;99.40;12.80;99168.00;;;;331444;29;82472;-95
2023/04/25 01:02:16;;;;;;;;;;;12.30;99.40;12.80;99173.00;;;;331958;29;93273;-95
2023/04/25 01:02:29;;;;;;;;;;;12.30;99.40;12.80;99164.00;;;;333965;29;83478;-95
2023/04/25 01:02:44;;;;;;;;;;;12.40;99.50;12.80;99169.00;;;;331927;29;95672;-95
2023/04/25 01:02:56;;;;;;;;;;;12.40;99.60;12.80;99164.00;;;;335289;29;82470;-95
2023/04/25 01:03:09;;;;;;;;;;;12.40;99.50;12.80;99171.00;;;;333301;29;96986;-95
2023/04/25 01:03:22;;;;;;;;;;;12.40;99.40;12.90;99172.00;;;;335224;29;82567;-95
2023/04/25 01:03:35;;;;;;;;;;;12.40;99.50;12.80;99166.00;;;;333311;29;96980;-94
2023/04/25 01:03:49;;;;;;;;;;;12.40;99.60;12.80;99170.00;;;;336672;28;82642;-94
2023/04/25 01:04:02;;;;;;;;;;;12.40;99.50;12.70;99172.00;;;;335842;28;97771;-94
2023/04/25 01:04:14;;;;;;;;;;;12.40;99.50;12.70;99176.00;;;;335313;29;83291;-94
2023/04/25 01:04:27;;;;;;;;;;;12.40;99.50;12.70;99172.00;;;;334544;29;96954;-94
2023/04/25 01:04:39;;;;;;;;;;;12.40;99.40;12.70;99177.00;;;;336713;28;83459;-94
2023/04/25 01:04:51;;;;;;;;;;;12.40;99.50;12.70;99177.00;;;;335890;28;96859;-94
2023/04/25 01:05:03;;;;;;;;;;;12.40;99.50;12.80;99176.00;;;;335290;29;83447;-96
2023/04/25 01:05:15;;;;;;;;;;;12.40;99.40;12.80;99174.00;;;;334620;29;96015;-95
2023/04/25 01:05:27;;;;;;;;;;;12.40;99.60;12.70;99179.00;;;;336717;28;82468;-94
2023/04/25 01:05:40;;;;;;;;;;;12.40;99.60;12.70;99174.00;;;;334583;29;95783;-95
2023/04/25 01:05:52;;;;;;;;;;;12.40;99.60;12.70;99181.00;;;;332765;29;83512;-94
2023/04/25 01:06:04;;;;;;;;;;;12.40;99.70;12.60;99181.00;;;;334579;29;96832;-94
2023/04/25 01:06:16;;;;;;;;;;;12.40;99.80;12.60;99176.00;;;;336729;28;82403;-93
2023/04/25 01:06:28;;;;;;;;;;;12.40;99.80;12.70;99174.00;;;;333325;29;97001;-94
2023/04/25 01:06:40;;;;;;;;;;;12.30;99.80;12.60;99181.00;;;;334294;29;83465;-94
2023/04/25 01:06:53;;;;;;;;;;;12.40;99.90;12.70;99177.00;;;;336091;28;97018;-94